createdAt,value
2023-08-12T00:00:42.135Z,4.65
2023-08-12T00:02:46.449Z,4.95
2023-08-12T00:04:49.665Z,5.32
2023-08-12T00:06:52.356Z,6.03
2023-08-12T00:08:54.961Z,5.03
2023-08-12T00:10:57.498Z,5.20
2023-08-12T00:13:01.006Z,5.65
2023-08-12T00:15:06.081Z,5.45
2023-08-12T00:17:08.761Z,5.47
2023-08-12T00:19:13.512Z,5.10
2023-08-12T00:21:16.447Z,4.93
2023-08-12T00:23:19.499Z,6.88
2023-08-12T00:25:22.264Z,5.10
2023-08-12T00:27:24.843Z,4.60
2023-08-12T00:29:27.624Z,5.07
2023-08-12T00:31:30.483Z,4.78
2023-08-12T00:33:33.488Z,4.50
2023-08-12T00:35:36.481Z,4.65
2023-08-12T00:37:39.189Z,4.88
2023-08-12T00:39:42.300Z,4.60
2023-08-12T00:41:45.035Z,4.53
2023-08-12T00:43:47.723Z,4.95
2023-08-12T00:45:51.995Z,5.07
2023-08-12T00:47:55.406Z,3.95
2023-08-12T00:49:59.867Z,4.47
2023-08-12T00:52:03.313Z,4.90
2023-08-12T00:54:08.168Z,4.60
2023-08-12T00:56:12.265Z,4.70
2023-08-12T00:58:15.564Z,4.32
2023-08-12T01:00:19.025Z,4.45
2023-08-12T01:02:21.778Z,6.38
2023-08-12T01:04:24.946Z,5.80
2023-08-12T01:06:28.456Z,5.60
2023-08-12T01:08:33.420Z,5.25
2023-08-12T01:10:40.719Z,6.55
2023-08-12T01:13:05.463Z,6.55
2023-08-12T01:15:17.731Z,6.65
2023-08-12T01:17:21.266Z,6.05
2023-08-12T01:19:35.191Z,5.28
2023-08-12T01:21:43.679Z,4.65
2023-08-12T01:23:47.521Z,5.65
2023-08-12T01:25:50.268Z,5.60
2023-08-12T01:27:53.180Z,4.93
2023-08-12T01:29:56.417Z,5.07
2023-08-12T01:32:20.590Z,4.63
2023-08-12T01:34:50.715Z,4.72
2023-08-12T01:36:59.071Z,5.30
2023-08-12T01:39:05.012Z,4.57
2023-08-12T01:41:11.035Z,5.55
2023-08-12T01:43:14.689Z,5.40
2023-08-12T01:45:21.203Z,5.32
2023-08-12T01:47:23.787Z,5.85
2023-08-12T01:49:26.526Z,5.88
2023-08-12T01:51:30.597Z,5.60
2023-08-12T01:53:33.165Z,6.38
2023-08-12T01:55:36.486Z,7.00
2023-08-12T01:57:39.300Z,5.32
2023-08-12T01:59:43.005Z,5.75
2023-08-12T02:01:47.332Z,5.57
2023-08-12T02:03:50.353Z,5.43
2023-08-12T02:05:53.586Z,5.00
2023-08-12T02:07:56.434Z,5.60
2023-08-12T02:09:59.394Z,6.00
2023-08-12T02:12:02.120Z,5.60
2023-08-12T02:14:04.961Z,6.55
2023-08-12T02:16:08.312Z,5.85
2023-08-12T02:18:11.142Z,5.78
2023-08-12T02:20:13.773Z,6.40
2023-08-12T02:22:16.547Z,7.53
2023-08-12T02:24:19.199Z,6.95
2023-08-12T02:26:22.612Z,5.75
2023-08-12T02:28:25.754Z,6.15
2023-08-12T02:30:30.651Z,5.43
2023-08-12T02:32:34.347Z,5.63
2023-08-12T02:34:37.446Z,5.70
2023-08-12T02:36:40.957Z,6.00
2023-08-12T02:38:43.491Z,6.38
2023-08-12T02:40:49.632Z,6.45
2023-08-12T02:42:52.069Z,6.15
2023-08-12T02:44:55.024Z,5.82
2023-08-12T02:46:57.786Z,6.18
2023-08-12T02:49:00.357Z,5.85
2023-08-12T02:51:06.151Z,6.25
2023-08-12T02:53:09.586Z,7.28
2023-08-12T02:55:13.095Z,6.18
2023-08-12T02:57:16.062Z,5.75
2023-08-12T02:59:19.151Z,5.63
2023-08-12T03:01:23.103Z,5.28
2023-08-12T03:03:25.940Z,5.57
2023-08-12T03:05:28.942Z,6.60
2023-08-12T03:07:32.014Z,6.53
2023-08-12T03:09:34.825Z,7.03
2023-08-12T03:11:37.409Z,6.88
2023-08-12T03:13:43.119Z,6.90
2023-08-12T03:15:46.180Z,5.90
2023-08-12T03:17:49.887Z,6.78
2023-08-12T03:19:53.102Z,7.78
2023-08-12T03:21:55.688Z,5.97
2023-08-12T03:23:59.459Z,7.75
2023-08-12T03:26:02.022Z,7.85
2023-08-12T03:28:05.585Z,7.60
2023-08-12T03:30:11.013Z,8.20
2023-08-12T03:32:13.835Z,8.55
2023-08-12T03:34:16.381Z,8.60
2023-08-12T03:36:20.281Z,7.60
2023-08-12T03:38:25.010Z,8.55
2023-08-12T03:40:27.752Z,8.32
2023-08-12T03:42:31.594Z,9.27
2023-08-12T03:44:36.072Z,8.35
2023-08-12T03:46:38.810Z,8.20
2023-08-12T03:48:42.333Z,8.90
2023-08-12T03:50:47.182Z,9.60
2023-08-12T03:52:50.199Z,10.18
2023-08-12T03:54:54.711Z,8.77
2023-08-12T03:56:58.363Z,8.25
2023-08-12T03:59:01.687Z,9.27
2023-08-12T04:01:04.621Z,9.13
2023-08-12T04:03:07.930Z,7.97
2023-08-12T04:05:10.791Z,7.88
2023-08-12T04:07:13.880Z,8.77
2023-08-12T04:09:18.628Z,9.00
2023-08-12T04:11:21.722Z,9.40
2023-08-12T04:13:24.455Z,8.32
2023-08-12T04:15:28.253Z,8.52
2023-08-12T04:17:31.740Z,11.57
2023-08-12T04:19:34.535Z,10.15
2023-08-12T04:21:39.886Z,10.75
2023-08-12T04:23:43.057Z,9.98
2023-08-12T04:25:46.820Z,10.27
2023-08-12T04:27:51.502Z,9.63
2023-08-12T04:29:54.638Z,9.98
2023-08-12T04:31:57.923Z,12.50
2023-08-12T04:34:00.717Z,10.93
2023-08-12T04:36:04.574Z,11.00
2023-08-12T04:38:08.215Z,10.48
2023-08-12T04:40:13.020Z,11.20
2023-08-12T04:42:16.932Z,9.93
2023-08-12T04:44:21.529Z,11.60
2023-08-12T04:46:24.501Z,10.70
2023-08-12T04:48:28.053Z,10.82
2023-08-12T04:50:32.706Z,11.55
2023-08-12T04:52:35.374Z,11.55
2023-08-12T04:54:38.032Z,10.55
2023-08-12T04:56:40.492Z,11.13
2023-08-12T04:58:43.498Z,11.68
2023-08-12T05:00:47.574Z,11.43
2023-08-12T05:02:51.195Z,11.15
2023-08-12T05:04:54.252Z,12.18
2023-08-12T05:06:58.095Z,11.70
2023-08-12T05:09:01.750Z,12.82
2023-08-12T05:11:05.757Z,11.57
2023-08-12T05:13:08.544Z,11.98
2023-08-12T05:15:12.601Z,11.65
2023-08-12T05:17:15.690Z,11.25
2023-08-12T05:19:18.931Z,11.65
2023-08-12T05:21:21.494Z,12.48
2023-08-12T05:23:23.969Z,12.25
2023-08-12T05:25:27.376Z,11.75
2023-08-12T05:27:30.039Z,11.63
2023-08-12T05:29:32.746Z,11.35
2023-08-12T05:31:35.411Z,11.20
2023-08-12T05:33:38.216Z,10.98
2023-08-12T05:35:40.791Z,10.35
2023-08-12T05:37:43.759Z,9.65
2023-08-12T05:39:46.321Z,11.93
2023-08-12T05:41:49.584Z,10.65
2023-08-12T05:43:52.208Z,10.70
2023-08-12T05:45:55.267Z,11.50
2023-08-12T05:47:58.857Z,11.18
2023-08-12T05:50:01.693Z,10.95
2023-08-12T05:52:05.053Z,11.07
2023-08-12T05:54:08.963Z,10.32
2023-08-12T05:56:11.621Z,10.27
2023-08-12T05:58:14.132Z,9.93
2023-08-12T06:00:16.689Z,10.00
2023-08-12T06:02:20.414Z,9.25
2023-08-12T06:04:23.206Z,9.68
2023-08-12T06:06:26.178Z,9.65
2023-08-12T06:08:28.979Z,10.02
2023-08-12T06:10:31.448Z,8.57
2023-08-12T06:12:34.300Z,10.27
2023-08-12T06:14:40.427Z,9.05
2023-08-12T06:16:43.686Z,9.00
2023-08-12T06:18:46.951Z,9.27
2023-08-12T06:20:50.088Z,8.90
2023-08-12T06:22:54.037Z,9.25
2023-08-12T06:24:56.807Z,9.20
2023-08-12T06:26:59.572Z,9.00
2023-08-12T06:29:05.701Z,8.18
2023-08-12T06:33:12.344Z,9.82
2023-08-12T06:35:15.136Z,8.27
2023-08-12T06:37:17.813Z,7.88
2023-08-12T06:39:20.458Z,8.48
2023-08-12T06:41:23.446Z,8.93
2023-08-12T06:43:28.446Z,8.70
2023-08-12T06:45:32.404Z,9.20
2023-08-12T06:47:36.067Z,8.23
2023-08-12T06:49:38.866Z,8.15
2023-08-12T06:51:42.002Z,7.65
2023-08-12T06:53:45.602Z,7.93
2023-08-12T06:55:48.281Z,7.05
2023-08-12T06:57:51.482Z,7.57
2023-08-12T06:59:54.610Z,7.13
2023-08-12T07:01:57.540Z,7.43
2023-08-12T07:04:00.640Z,7.78
2023-08-12T07:06:03.682Z,6.80
2023-08-12T07:08:07.327Z,6.35
2023-08-12T07:10:10.760Z,7.47
2023-08-12T07:12:13.810Z,7.38
2023-08-12T07:14:16.754Z,7.40
2023-08-12T07:16:19.721Z,7.05
2023-08-12T07:18:24.304Z,7.18
2023-08-12T07:20:27.113Z,6.93
2023-08-12T07:22:30.022Z,7.47
2023-08-12T07:24:32.657Z,7.18
2023-08-12T07:26:35.626Z,6.32
2023-08-12T07:28:38.628Z,6.65
2023-08-12T07:30:41.419Z,6.22
2023-08-12T07:32:43.961Z,6.68
2023-08-12T07:34:47.057Z,6.90
2023-08-12T07:36:50.191Z,6.32
2023-08-12T07:38:52.981Z,6.25
2023-08-12T07:40:56.506Z,6.13
2023-08-12T07:42:59.543Z,5.95
2023-08-12T07:45:02.124Z,5.90
2023-08-12T07:47:06.581Z,6.28
2023-08-12T07:49:09.812Z,6.38
2023-08-12T07:51:13.145Z,6.70
2023-08-12T07:53:17.333Z,5.82
2023-08-12T07:55:21.024Z,6.93
2023-08-12T07:57:25.540Z,5.63
2023-08-12T07:59:28.102Z,5.55
2023-08-12T08:01:30.780Z,5.55
2023-08-12T08:03:33.579Z,5.63
2023-08-12T08:05:36.959Z,5.30
2023-08-12T08:07:39.906Z,5.53
2023-08-12T08:09:42.509Z,6.07
2023-08-12T08:11:45.428Z,5.88
2023-08-12T08:13:48.544Z,5.00
2023-08-12T08:15:51.423Z,5.13
2023-08-12T08:17:55.167Z,5.47
2023-08-12T08:19:58.424Z,4.57
2023-08-12T08:22:01.461Z,5.40
2023-08-12T08:24:04.363Z,5.60
2023-08-12T08:26:07.418Z,5.30
2023-08-12T08:28:10.408Z,5.05
2023-08-12T08:30:13.569Z,4.55
2023-08-12T08:32:18.913Z,4.60
2023-08-12T08:34:21.706Z,5.45
2023-08-12T08:36:24.662Z,5.03
2023-08-12T08:38:27.306Z,5.43
2023-08-12T08:40:30.145Z,4.72
2023-08-12T08:42:33.300Z,4.90
2023-08-12T08:44:37.021Z,4.75
2023-08-12T08:46:39.800Z,4.47
2023-08-12T08:48:48.579Z,4.32
2023-08-12T08:50:53.713Z,4.60
2023-08-12T08:52:58.495Z,4.57
2023-08-12T08:55:04.242Z,4.43
2023-08-12T08:57:20.340Z,4.53
2023-08-12T08:59:25.999Z,4.15
2023-08-12T09:01:30.693Z,4.30
2023-08-12T09:03:39.933Z,4.72
2023-08-12T09:05:44.299Z,4.10
2023-08-12T09:07:48.001Z,4.38
2023-08-12T09:09:54.241Z,4.50
2023-08-12T09:11:57.190Z,4.20
2023-08-12T09:14:00.138Z,4.18
2023-08-12T09:16:03.525Z,4.57
2023-08-12T09:18:08.026Z,4.13
2023-08-12T09:20:13.807Z,4.15
2023-08-12T09:22:16.989Z,4.72
2023-08-12T09:24:29.089Z,4.22
2023-08-12T09:26:32.039Z,4.30
2023-08-12T09:28:38.737Z,4.03
2023-08-12T09:30:42.621Z,3.95
2023-08-12T09:33:01.167Z,4.00
2023-08-12T09:35:05.316Z,3.88
2023-08-12T09:37:08.844Z,4.03
2023-08-12T09:39:12.150Z,4.30
2023-08-12T09:41:15.942Z,3.72
2023-08-12T09:43:18.566Z,4.00
2023-08-12T09:45:26.225Z,4.25
2023-08-12T09:47:29.522Z,3.75
2023-08-12T09:49:32.345Z,4.20
2023-08-12T09:51:38.443Z,4.40
2023-08-12T09:53:43.477Z,4.10
2023-08-12T09:55:50.872Z,3.80
2023-08-12T09:57:55.440Z,3.63
2023-08-12T09:59:59.799Z,4.35
2023-08-12T10:02:10.648Z,4.32
2023-08-12T10:04:18.784Z,3.85
2023-08-12T10:06:22.749Z,3.60
2023-08-12T10:08:26.939Z,3.63
2023-08-12T10:10:31.937Z,3.30
2023-08-12T10:12:36.493Z,3.28
2023-08-12T10:14:40.372Z,3.63
2023-08-12T10:16:48.790Z,3.75
2023-08-12T10:18:52.951Z,4.10
2023-08-12T10:20:59.479Z,4.28
2023-08-12T10:23:03.504Z,3.70
2023-08-12T10:25:09.701Z,3.67
2023-08-12T10:27:14.542Z,3.90
2023-08-12T10:29:17.585Z,3.88
2023-08-12T10:31:21.908Z,3.88
2023-08-12T10:33:24.918Z,3.97
2023-08-12T10:35:43.520Z,3.28
2023-08-12T10:37:52.172Z,3.75
2023-08-12T10:39:55.985Z,3.10
2023-08-12T10:42:00.075Z,3.17
2023-08-12T10:44:06.493Z,2.95
2023-08-12T10:46:23.798Z,3.33
2023-08-12T10:48:27.621Z,3.88
2023-08-12T10:50:32.780Z,3.35
2023-08-12T10:52:36.525Z,3.03
2023-08-12T10:54:39.871Z,3.53
2023-08-12T10:57:04.311Z,3.70
2023-08-12T10:59:07.154Z,3.25
2023-08-12T11:01:19.045Z,3.25
2023-08-12T11:03:22.700Z,2.92
2023-08-12T11:05:26.537Z,2.92
2023-08-12T11:08:02.682Z,3.50
2023-08-12T11:10:15.442Z,3.28
2023-08-12T11:12:35.031Z,2.88
2023-08-12T11:14:54.882Z,2.90
2023-08-12T11:16:57.834Z,2.50
2023-08-12T11:19:00.962Z,2.83
2023-08-12T11:21:05.242Z,2.70
2023-08-12T11:23:09.804Z,2.72
2023-08-12T11:25:14.830Z,2.45
2023-08-12T11:27:19.700Z,2.22
2023-08-12T11:29:25.489Z,2.00
2023-08-12T11:31:28.975Z,2.13
2023-08-12T11:35:37.948Z,2.10
2023-08-12T11:37:43.248Z,1.75
2023-08-12T11:39:47.213Z,2.55
2023-08-12T11:41:51.892Z,2.30
2023-08-12T11:43:54.618Z,2.45
2023-08-12T11:45:58.256Z,2.08
2023-08-12T11:48:01.309Z,2.20
2023-08-12T11:50:09.649Z,2.33
2023-08-12T11:52:13.893Z,2.30
2023-08-12T11:54:17.510Z,2.05
2023-08-12T11:56:21.949Z,2.20
2023-08-12T11:58:25.381Z,2.63
2023-08-12T12:00:28.973Z,2.20
2023-08-12T12:02:31.722Z,2.33
2023-08-12T12:04:36.398Z,2.40
2023-08-12T12:06:39.834Z,2.65
2023-08-12T12:08:42.969Z,2.40
2023-08-12T12:10:45.614Z,2.20
2023-08-12T12:12:48.516Z,2.50
2023-08-12T12:14:54.528Z,2.70
2023-08-12T12:16:57.371Z,2.53
2023-08-12T12:19:00.697Z,2.40
2023-08-12T12:21:03.563Z,2.20
2023-08-12T12:23:09.732Z,2.38
2023-08-12T12:25:15.159Z,2.10
2023-08-12T12:27:17.720Z,2.10
2023-08-12T12:29:21.956Z,2.03
2023-08-12T12:31:24.678Z,2.40
2023-08-12T12:33:27.457Z,2.13
2023-08-12T12:37:33.713Z,2.20
2023-08-12T12:39:36.638Z,2.03
2023-08-12T12:41:39.387Z,1.90
2023-08-12T12:43:42.430Z,2.17
2023-08-12T12:45:45.534Z,2.38
2023-08-12T12:47:49.114Z,2.08
2023-08-12T12:49:52.774Z,2.22
2023-08-12T12:51:55.973Z,1.98
2023-08-12T12:53:58.594Z,2.47
2023-08-12T12:56:05.835Z,2.10
2023-08-12T12:58:10.543Z,2.25
2023-08-12T13:00:15.916Z,2.08
2023-08-12T13:02:18.979Z,2.47
2023-08-12T13:04:21.583Z,2.08
2023-08-12T13:06:24.513Z,2.03
2023-08-12T13:08:27.320Z,2.05
2023-08-12T13:10:30.602Z,1.80
2023-08-12T13:12:33.194Z,1.80
2023-08-12T13:14:36.162Z,2.05
2023-08-12T13:16:39.093Z,2.50
2023-08-12T13:18:41.836Z,2.13
2023-08-12T13:20:44.818Z,2.10
2023-08-12T13:22:47.887Z,2.55
2023-08-12T13:24:50.638Z,2.38
2023-08-12T13:26:57.024Z,2.15
2023-08-12T13:29:01.614Z,1.98
2023-08-12T13:31:04.710Z,2.25
2023-08-12T13:33:07.447Z,2.25
2023-08-12T13:35:10.628Z,2.42
2023-08-12T13:37:14.180Z,2.03
2023-08-12T13:39:17.202Z,2.28
2023-08-12T13:41:19.769Z,2.28
2023-08-12T13:43:22.881Z,2.50
2023-08-12T13:45:25.714Z,2.33
2023-08-12T13:47:28.693Z,2.28
2023-08-12T13:49:31.428Z,2.35
2023-08-12T13:51:34.341Z,1.98
2023-08-12T13:53:37.475Z,2.33
2023-08-12T13:55:39.915Z,2.08
2023-08-12T13:57:43.044Z,2.40
2023-08-12T13:59:46.053Z,2.35
2023-08-12T14:01:48.713Z,2.30
2023-08-12T14:03:51.620Z,2.40
2023-08-12T14:05:54.513Z,2.08
2023-08-12T14:07:57.383Z,2.20
2023-08-12T14:10:01.391Z,2.30
2023-08-12T14:12:04.909Z,2.35
2023-08-12T14:14:08.024Z,2.05
2023-08-12T14:16:11.031Z,1.92
2023-08-12T14:18:14.030Z,2.00
2023-08-12T14:20:17.121Z,2.10
2023-08-12T14:22:20.192Z,1.85
2023-08-12T14:24:23.098Z,3.08
2023-08-12T14:26:25.870Z,2.50
2023-08-12T14:28:28.425Z,2.20
2023-08-12T14:30:31.400Z,2.03
2023-08-12T14:32:34.034Z,2.08
2023-08-12T14:34:40.700Z,2.38
2023-08-12T14:36:44.038Z,2.03
2023-08-12T14:38:47.202Z,2.05
2023-08-12T14:40:51.019Z,2.53
2023-08-12T14:42:54.142Z,2.03
2023-08-12T14:44:56.949Z,2.13
2023-08-12T14:47:03.210Z,2.20
2023-08-12T14:51:08.747Z,2.20
2023-08-12T14:53:11.864Z,2.20
2023-08-12T14:55:14.610Z,2.08
2023-08-12T14:57:17.223Z,2.30
2023-08-12T14:59:20.264Z,2.28
2023-08-12T15:01:25.655Z,2.22
2023-08-12T15:03:28.367Z,2.25
2023-08-12T15:05:32.359Z,2.00
2023-08-12T15:07:35.088Z,1.92
2023-08-12T15:09:38.992Z,2.33
2023-08-12T15:11:41.686Z,2.28
2023-08-12T15:13:44.464Z,1.95
2023-08-12T15:15:48.435Z,2.08
2023-08-12T15:17:51.245Z,1.83
2023-08-12T15:19:54.837Z,2.33
2023-08-12T15:21:59.625Z,2.25
2023-08-12T15:24:02.500Z,2.47
2023-08-12T15:26:06.317Z,2.45
2023-08-12T15:28:09.174Z,2.30
2023-08-12T15:30:12.385Z,2.30
2023-08-12T15:32:15.425Z,2.30
2023-08-12T15:34:18.308Z,2.47
2023-08-12T15:36:21.527Z,2.40
2023-08-12T15:38:24.469Z,2.38
2023-08-12T15:40:27.043Z,2.50
2023-08-12T15:42:30.093Z,2.40
2023-08-12T15:44:32.954Z,2.50
2023-08-12T15:46:37.068Z,2.20
2023-08-12T15:48:39.895Z,2.08
2023-08-12T15:50:46.820Z,2.30
2023-08-12T15:52:49.984Z,2.33
2023-08-12T15:54:53.275Z,2.40
2023-08-12T15:56:58.169Z,2.22
2023-08-12T15:59:01.132Z,2.75
2023-08-12T16:01:04.686Z,2.10
2023-08-12T16:03:07.694Z,2.40
2023-08-12T16:05:10.817Z,2.20
2023-08-12T16:07:14.129Z,1.90
2023-08-12T16:09:19.194Z,2.35
2023-08-12T16:11:23.680Z,2.15
2023-08-12T16:13:27.086Z,2.63
2023-08-12T16:15:30.196Z,2.38
2023-08-12T16:17:32.736Z,2.08
2023-08-12T16:19:36.038Z,2.30
2023-08-12T16:21:39.165Z,2.33
2023-08-12T16:23:41.790Z,2.53
2023-08-12T16:25:45.501Z,2.63
2023-08-12T16:27:50.245Z,2.38
2023-08-12T16:29:52.967Z,2.80
2023-08-12T16:31:56.037Z,2.47
2023-08-12T16:33:58.971Z,2.50
2023-08-12T16:36:01.638Z,2.60
2023-08-12T16:38:05.611Z,2.40
2023-08-12T16:40:10.593Z,2.90
2023-08-12T16:42:13.812Z,2.90
2023-08-12T16:44:17.203Z,2.95
2023-08-12T16:46:20.082Z,2.50
2023-08-12T16:48:23.136Z,2.30
2023-08-12T16:50:25.941Z,2.70
2023-08-12T16:52:28.908Z,2.72
2023-08-12T16:54:31.935Z,2.72
2023-08-12T16:56:34.404Z,2.30
2023-08-12T16:58:37.949Z,2.40
2023-08-12T17:00:41.176Z,3.05
2023-08-12T17:02:44.501Z,2.33
2023-08-12T17:04:47.347Z,2.35
2023-08-12T17:06:50.710Z,2.47
2023-08-12T17:08:53.466Z,2.55
2023-08-12T17:10:58.192Z,2.63
2023-08-12T17:13:01.754Z,2.83
2023-08-12T17:15:05.244Z,3.20
2023-08-12T17:17:08.731Z,2.67
2023-08-12T17:19:11.842Z,2.53
2023-08-12T17:21:14.908Z,3.03
2023-08-12T17:23:17.944Z,2.25
2023-08-12T17:25:21.266Z,2.70
2023-08-12T17:27:24.555Z,2.55
2023-08-12T17:29:27.360Z,2.45
2023-08-12T17:31:30.181Z,1.95
2023-08-12T17:33:33.469Z,2.83
2023-08-12T17:35:36.433Z,2.35
2023-08-12T17:37:40.426Z,2.50
2023-08-12T17:39:43.347Z,2.25
2023-08-12T17:41:46.621Z,2.42
2023-08-12T17:43:50.392Z,2.70
2023-08-12T17:45:53.441Z,2.30
2023-08-12T17:47:58.817Z,2.58
2023-08-12T17:50:02.015Z,2.67
2023-08-12T17:52:05.593Z,2.50
2023-08-12T17:54:08.537Z,2.30
2023-08-12T17:56:12.493Z,2.30
2023-08-12T17:58:16.126Z,2.80
2023-08-12T18:00:19.026Z,3.10
2023-08-12T18:02:21.842Z,3.60
2023-08-12T18:04:24.837Z,4.93
2023-08-12T18:06:28.140Z,5.45
2023-08-12T18:08:31.537Z,6.65
2023-08-12T18:10:34.280Z,11.77
2023-08-12T18:12:37.112Z,11.40
2023-08-12T18:14:40.106Z,10.82
2023-08-12T18:16:43.344Z,9.20
2023-08-12T18:18:46.513Z,8.25
2023-08-12T18:20:49.616Z,7.45
2023-08-12T18:22:52.240Z,6.55
2023-08-12T18:24:55.085Z,7.35
2023-08-12T18:26:58.099Z,7.05
2023-08-12T18:29:01.043Z,7.97
2023-08-12T18:31:04.128Z,5.40
2023-08-12T18:33:07.529Z,4.45
2023-08-12T18:35:11.536Z,3.50
2023-08-12T18:37:14.820Z,3.83
2023-08-12T18:39:18.784Z,4.10
2023-08-12T18:41:21.609Z,5.30
2023-08-12T18:43:25.440Z,6.18
2023-08-12T18:45:30.664Z,9.10
2023-08-12T18:47:34.549Z,8.70
2023-08-12T18:49:37.656Z,8.43
2023-08-12T18:51:40.589Z,6.57
2023-08-12T18:53:43.815Z,6.68
2023-08-12T18:55:46.348Z,6.10
2023-08-12T18:57:50.664Z,6.65
2023-08-12T18:59:54.416Z,5.30
2023-08-12T19:01:58.920Z,4.47
2023-08-12T19:04:01.616Z,4.50
2023-08-12T19:06:05.643Z,4.43
2023-08-12T19:08:08.280Z,4.82
2023-08-12T19:10:12.034Z,4.93
2023-08-12T19:12:15.173Z,6.22
2023-08-12T19:14:18.256Z,7.15
2023-08-12T19:16:21.212Z,7.90
2023-08-12T19:18:25.557Z,7.85
2023-08-12T19:20:28.133Z,6.30
2023-08-12T19:22:31.396Z,5.32
2023-08-12T19:24:34.296Z,6.35
2023-08-12T19:26:37.770Z,5.35
2023-08-12T19:28:40.503Z,6.65
2023-08-12T19:30:43.960Z,5.95
2023-08-12T19:32:55.734Z,8.63
2023-08-12T19:34:58.670Z,7.47
2023-08-12T19:37:02.004Z,6.78
2023-08-12T19:39:05.439Z,8.15
2023-08-12T19:41:08.431Z,13.27
2023-08-12T19:43:11.389Z,10.73
2023-08-12T19:45:16.011Z,8.40
2023-08-12T19:47:20.428Z,7.18
2023-08-12T19:49:24.295Z,7.28
2023-08-12T19:51:27.446Z,6.18
2023-08-12T19:53:30.538Z,6.18
2023-08-12T19:55:34.312Z,6.18
2023-08-12T19:57:37.347Z,6.15
2023-08-12T19:59:40.587Z,7.88
2023-08-12T20:01:44.197Z,5.82
2023-08-12T20:03:47.436Z,5.68
2023-08-12T20:05:50.508Z,5.50
2023-08-12T20:07:54.000Z,6.00
2023-08-12T20:09:56.854Z,7.20
2023-08-12T20:12:00.047Z,6.32
2023-08-12T20:14:03.570Z,6.57
2023-08-12T20:16:06.573Z,6.10
2023-08-12T20:18:09.607Z,6.35
2023-08-12T20:20:15.483Z,5.90
2023-08-12T20:22:19.291Z,5.78
2023-08-12T20:24:23.125Z,5.30
2023-08-12T20:26:27.801Z,5.72
2023-08-12T20:28:31.095Z,6.13
2023-08-12T20:30:35.157Z,5.35
2023-08-12T20:32:40.189Z,5.47
2023-08-12T20:34:44.152Z,5.88
2023-08-12T20:36:47.423Z,6.90
2023-08-12T20:38:51.138Z,9.15
2023-08-12T20:40:54.317Z,18.92
2023-08-12T20:42:57.534Z,20.13
2023-08-12T20:45:00.503Z,17.80
2023-08-12T20:47:03.395Z,16.48
2023-08-12T20:49:06.149Z,9.75
2023-08-12T20:51:09.150Z,9.50
2023-08-12T20:53:12.366Z,7.88
2023-08-12T20:55:15.039Z,7.68
2023-08-12T20:57:18.905Z,7.38
2023-08-12T20:59:22.038Z,7.00
2023-08-12T21:01:25.151Z,6.30
2023-08-12T21:03:28.372Z,6.55
2023-08-12T21:05:31.961Z,6.00
2023-08-12T21:07:35.246Z,6.43
2023-08-12T21:09:37.896Z,6.10
2023-08-12T21:11:40.753Z,5.63
2023-08-12T21:13:43.451Z,6.07
2023-08-12T21:15:46.390Z,5.90
2023-08-12T21:17:49.611Z,5.20
2023-08-12T21:19:52.476Z,6.82
2023-08-12T21:21:55.622Z,6.00
2023-08-12T21:23:58.485Z,5.50
2023-08-12T21:26:01.622Z,5.43
2023-08-12T21:28:05.717Z,5.57
2023-08-12T21:30:10.619Z,5.07
2023-08-12T21:32:13.867Z,5.30
2023-08-12T21:34:16.884Z,6.05
2023-08-12T21:36:19.647Z,5.60
2023-08-12T21:38:22.740Z,5.47
2023-08-12T21:40:26.164Z,6.00
2023-08-12T21:42:29.048Z,5.60
2023-08-12T21:44:32.181Z,5.22
2023-08-12T21:46:36.013Z,5.18
2023-08-12T21:48:38.974Z,4.93
2023-08-12T21:50:42.564Z,5.82
2023-08-12T21:52:45.638Z,5.18
2023-08-12T21:54:49.418Z,5.03
2023-08-12T21:56:52.324Z,4.93
2023-08-12T21:58:56.442Z,5.30
2023-08-12T22:00:59.749Z,4.82
2023-08-12T22:03:02.450Z,4.90
2023-08-12T22:05:06.722Z,5.03
2023-08-12T22:07:09.897Z,5.38
2023-08-12T22:09:12.955Z,5.20
2023-08-12T22:11:16.220Z,6.00
2023-08-12T22:13:19.139Z,5.22
2023-08-12T22:15:21.754Z,4.85
2023-08-12T22:17:24.916Z,4.85
2023-08-12T22:19:27.519Z,4.55
2023-08-12T22:21:30.088Z,5.03
2023-08-12T22:23:33.223Z,5.85
2023-08-12T22:25:35.808Z,4.75
2023-08-12T22:27:38.818Z,4.80
2023-08-12T22:29:42.579Z,5.72
2023-08-12T22:31:45.460Z,5.22
2023-08-12T22:33:48.847Z,5.03
2023-08-12T22:35:52.052Z,5.95
2023-08-12T22:37:54.643Z,4.85
2023-08-12T22:39:57.326Z,5.32
2023-08-12T22:42:00.894Z,5.68
2023-08-12T22:44:03.721Z,4.97
2023-08-12T22:46:06.376Z,5.07
2023-08-12T22:48:09.310Z,4.80
2023-08-12T22:50:13.924Z,5.05
2023-08-12T22:52:16.813Z,4.95
2023-08-12T22:54:20.079Z,4.82
2023-08-12T22:56:22.899Z,5.35
2023-08-12T22:58:25.538Z,5.25
2023-08-12T23:00:28.597Z,5.45
2023-08-12T23:02:32.580Z,6.25
2023-08-12T23:04:35.242Z,5.50
2023-08-12T23:06:37.908Z,5.50
2023-08-12T23:08:40.815Z,5.75
2023-08-12T23:10:43.765Z,5.30
2023-08-12T23:12:46.728Z,4.95
2023-08-12T23:14:49.479Z,5.50
2023-08-12T23:16:52.645Z,4.90
2023-08-12T23:18:55.212Z,5.03
2023-08-12T23:20:57.819Z,4.88
2023-08-12T23:23:00.692Z,4.80
2023-08-12T23:25:03.791Z,5.32
2023-08-12T23:27:06.892Z,4.70
2023-08-12T23:29:09.675Z,5.35
2023-08-12T23:31:15.127Z,4.57
2023-08-12T23:33:17.868Z,5.22
2023-08-12T23:35:20.951Z,5.07
2023-08-12T23:37:24.073Z,4.88
2023-08-12T23:39:28.451Z,4.63
2023-08-12T23:41:32.506Z,5.30
2023-08-12T23:43:35.193Z,4.93
2023-08-12T23:45:38.624Z,4.93
2023-08-12T23:47:42.582Z,4.80
2023-08-12T23:49:45.308Z,4.85
2023-08-12T23:51:49.610Z,4.78
2023-08-12T23:53:52.947Z,4.18
2023-08-12T23:55:55.617Z,4.00
2023-08-12T23:57:58.600Z,4.13
